Time;durP1;ratioP1;P1;durP2;ratioP2;P2;SDS_P1;SDS_P2;PMS_P1;PMS_P2;Temp;Humidity;BMP_temperature;BMP_pressure;BME280_temperature;BME280_humidity;BME280_pressure;Samples;Min_cycle;Max_cycle;Signal;HPM_P1;HPM_P2
2023/09/30 00:00:11;;;;;;;2.87;1.57;;;19.00;99.90;;;19.53;nan;101454.91;4908458;29;21218;-69
2023/09/30 00:02:38;;;;;;;1.50;1.40;;;19.10;99.90;;;19.52;nan;101447.09;4911915;29;20641;-70
2023/09/30 00:05:06;;;;;;;2.27;1.63;;;19.00;99.90;;;19.54;nan;101451.28;4912341;29;20638;-67
2023/09/30 00:07:34;;;;;;;6.07;1.73;;;19.10;99.90;;;19.52;nan;101453.25;4908883;29;21034;-69
2023/09/30 00:10:01;;;;;;;3.03;1.77;;;19.10;99.90;;;19.53;nan;101459.38;4916689;29;20643;-69
2023/09/30 00:12:28;;;;;;;1.60;1.47;;;19.00;99.90;;;19.53;nan;101462.03;4908591;29;20641;-69
2023/09/30 00:14:55;;;;;;;1.67;1.57;;;19.00;99.90;;;19.49;nan;101464.13;4897702;29;21220;-69
2023/09/30 00:17:22;;;;;;;1.83;1.70;;;19.00;99.90;;;19.49;nan;101472.06;4901825;29;20673;-69
2023/09/30 00:19:49;;;;;;;5.13;1.63;;;19.00;99.90;;;19.50;nan;101478.19;4911983;29;20652;-70
2023/09/30 00:22:16;;;;;;;3.10;1.93;;;19.00;99.90;;;19.48;nan;101475.69;4910874;29;21196;-69
2023/09/30 00:24:43;;;;;;;1.97;1.87;;;19.00;99.90;;;19.51;nan;101479.84;4912743;29;20706;-69
2023/09/30 00:27:10;;;;;;;2.87;1.40;;;19.00;99.90;;;19.51;nan;101482.50;4911004;29;20681;-68
2023/09/30 00:29:37;;;;;;;2.73;1.57;;;19.00;99.90;;;19.50;nan;101481.69;4910502;29;20718;-70
2023/09/30 00:32:05;;;;;;;1.83;1.37;;;19.00;99.90;;;19.49;nan;101479.16;4912163;29;20638;-69
2023/09/30 00:34:35;;;;;;;1.50;1.40;;;19.00;99.90;;;19.50;nan;101480.84;4909426;29;21231;-68
2023/09/30 00:37:03;;;;;;;2.63;1.83;;;19.00;99.90;;;19.50;nan;101491.44;4909944;29;20664;-69
2023/09/30 00:39:30;;;;;;;1.87;1.77;;;19.00;99.90;;;19.47;nan;101487.25;4927917;29;20634;-67
2023/09/30 00:42:03;;;;;;;1.57;1.40;;;19.00;99.90;;;19.45;nan;101499.81;4914285;29;20634;-69
2023/09/30 00:44:30;;;;;;;1.23;1.20;;;19.00;99.90;;;19.42;nan;101483.41;4909190;29;21267;-70
2023/09/30 00:46:58;;;;;;;1.20;1.20;;;19.00;99.90;;;19.36;nan;101490.09;4907102;29;20678;-69
2023/09/30 00:49:26;;;;;;;1.63;1.53;;;18.90;99.90;;;19.32;nan;101480.75;4928770;29;20652;-68
2023/09/30 00:51:54;;;;;;;1.60;1.50;;;18.90;99.90;;;19.32;nan;101486.03;4924699;29;20642;-69
2023/09/30 00:54:24;;;;;;;1.67;1.57;;;18.80;99.90;;;19.32;nan;101491.31;4915563;29;20653;-70
2023/09/30 00:56:55;;;;;;;1.47;1.40;;;18.90;99.90;;;19.31;nan;101500.25;4913170;29;20684;-66
2023/09/30 00:59:25;;;;;;;1.40;1.30;;;18.90;99.90;;;19.31;nan;101495.78;4914425;29;20618;-69
2023/09/30 01:01:54;;;;;;;2.30;2.10;;;18.80;99.90;;;19.32;nan;101489.53;4926737;29;20652;-68
2023/09/30 01:04:21;;;;;;;4.13;1.90;;;18.90;99.90;;;19.33;nan;101483.28;4914844;29;20648;-69
2023/09/30 01:06:48;;;;;;;2.10;1.90;;;18.90;99.90;;;19.32;nan;101480.75;4912003;29;20696;-67
2023/09/30 01:09:15;;;;;;;2.20;2.07;;;18.90;99.90;;;19.33;nan;101479.78;4915571;29;20634;-66
2023/09/30 01:11:42;;;;;;;2.93;2.10;;;18.90;99.90;;;19.33;nan;101480.63;4911699;29;20638;-70
2023/09/30 01:14:31;;;;;;;2.00;1.90;;;18.90;99.90;;;19.36;nan;101495.38;4919828;29;20645;-70
2023/09/30 01:16:58;;;;;;;2.20;2.00;;;18.90;99.90;;;19.38;nan;101480.19;4906988;29;20669;-68
2023/09/30 01:19:25;;;;;;;1.97;1.57;;;18.90;99.90;;;19.43;nan;101482.41;4928722;29;20648;-66
2023/09/30 01:21:56;;;;;;;1.27;1.17;;;18.90;99.90;;;19.45;nan;101488.38;4915657;29;20689;-67
2023/09/30 01:24:23;;;;;;;1.27;1.27;;;19.00;99.90;;;19.45;nan;101485.72;4915033;29;20642;-69
2023/09/30 01:26:50;;;;;;;3.13;1.47;;;19.00;99.90;;;19.43;nan;101488.53;4913835;29;20686;-70
2023/09/30 01:29:17;;;;;;;4.70;1.67;;;19.00;99.90;;;19.36;nan;101492.72;4916395;29;20629;-69
2023/09/30 01:31:47;;;;;;;2.00;1.90;;;18.90;99.90;;;19.27;nan;101494.41;4913332;29;20653;-68
2023/09/30 01:34:17;;;;;;;1.50;1.40;;;18.80;99.90;;;19.24;nan;101500.00;4914963;29;20634;-69
2023/09/30 01:36:44;;;;;;;2.37;1.50;;;18.80;99.90;;;19.22;nan;101503.78;4913235;29;21294;-69
2023/09/30 01:39:13;;;;;;;1.73;1.63;;;18.80;99.90;;;19.17;nan;101506.00;4915614;29;20693;-68
2023/09/30 01:41:41;;;;;;;3.17;2.13;;;18.80;99.90;;;19.10;nan;101500.44;4914205;29;20697;-68
2023/09/30 01:44:09;;;;;;;9.07;2.80;;;18.70;99.90;;;19.07;nan;101502.56;4911150;29;20646;-68
2023/09/30 01:46:36;;;;;;;4.00;3.00;;;18.60;99.90;;;19.05;nan;101509.81;4912699;29;20785;-67
2023/09/30 01:49:03;;;;;;;5.80;3.23;;;18.60;99.90;;;19.06;nan;101508.84;4912186;29;20638;-69
2023/09/30 01:51:30;;;;;;;3.40;2.93;;;18.70;99.90;;;19.05;nan;101509.81;4914572;29;21200;-68
2023/09/30 01:53:57;;;;;;;4.37;3.50;;;18.60;99.90;;;19.06;nan;101509.66;4911758;29;20645;-69
2023/09/30 01:56:25;;;;;;;4.60;3.50;;;18.60;99.90;;;19.08;nan;101512.19;4914623;29;20673;-68
2023/09/30 01:58:52;;;;;;;3.63;3.20;;;18.60;99.90;;;19.12;nan;101505.63;4914568;29;20771;-69
2023/09/30 02:01:20;;;;;;;5.30;3.00;;;18.70;99.90;;;19.13;nan;101501.97;4909595;29;21018;-69
2023/09/30 02:03:46;;;;;;;4.30;3.27;;;18.70;99.90;;;19.14;nan;101499.22;4905537;29;21023;-69
2023/09/30 02:06:14;;;;;;;4.07;2.73;;;18.70;99.90;;;19.17;nan;101500.72;4922992;29;20685;-67
2023/09/30 02:08:41;;;;;;;5.30;2.57;;;18.70;99.90;;;19.18;nan;101499.75;4912396;29;20645;-68
2023/09/30 02:11:08;;;;;;;2.83;2.63;;;18.70;99.90;;;19.17;nan;101501.56;4904228;29;20634;-69
2023/09/30 02:13:35;;;;;;;3.43;2.73;;;18.70;99.90;;;19.16;nan;101502.56;4914092;29;20634;-67
2023/09/30 02:16:02;;;;;;;4.53;2.90;;;18.70;99.90;;;19.17;nan;101509.50;4906392;29;20678;-68
2023/09/30 02:18:32;;;;;;;2.63;2.43;;;18.70;99.90;;;19.16;nan;101507.00;4909883;29;20634;-68
2023/09/30 02:20:59;;;;;;;3.00;2.70;;;18.70;99.90;;;19.17;nan;101508.66;4907256;29;21204;-68
2023/09/30 02:23:26;;;;;;;4.30;2.90;;;18.70;99.90;;;19.16;nan;101504.34;4906708;29;20646;-68
2023/09/30 02:25:53;;;;;;;3.90;2.53;;;18.70;99.90;;;19.16;nan;101505.19;4905696;29;20685;-69
2023/09/30 02:28:20;;;;;;;2.63;2.43;;;18.70;99.90;;;19.16;nan;101510.50;4913935;29;20638;-70
2023/09/30 02:30:48;;;;;;;1.70;1.60;;;18.70;99.90;;;19.15;nan;101513.25;4910271;29;20649;-68
2023/09/30 02:33:15;;;;;;;1.77;1.60;;;18.70;99.90;;;19.14;nan;101516.91;4913746;29;20709;-67
2023/09/30 02:35:45;;;;;;;2.63;2.43;;;18.70;99.90;;;19.11;nan;101525.09;4913287;29;20634;-68
2023/09/30 02:38:15;;;;;;;3.90;2.53;;;18.70;99.90;;;19.06;nan;101524.72;4913993;29;20634;-69
2023/09/30 02:40:46;;;;;;;1.80;1.73;;;18.70;99.90;;;19.03;nan;101528.47;4912446;29;20716;-66
2023/09/30 02:43:13;;;;;;;2.20;2.10;;;18.60;99.90;;;19.02;nan;101533.88;4912382;29;20633;-68
2023/09/30 02:45:40;;;;;;;1.83;1.73;;;18.60;99.90;;;19.01;nan;101525.16;4908911;29;20652;-69
2023/09/30 02:48:08;;;;;;;1.90;1.80;;;18.60;99.90;;;18.96;nan;101530.00;4920872;29;20688;-69
2023/09/30 02:50:35;;;;;;;2.00;1.90;;;18.50;99.90;;;18.93;nan;101527.66;4913518;29;20649;-67
2023/09/30 02:53:02;;;;;;;2.10;2.00;;;18.50;99.90;;;18.93;nan;101532.13;4910977;29;20695;-66
2023/09/30 02:55:29;;;;;;;2.50;2.30;;;18.50;99.90;;;18.87;nan;101537.97;4907222;29;20661;-68
2023/09/30 02:57:57;;;;;;;3.50;2.40;;;18.50;99.90;;;18.79;nan;101535.19;4919944;29;20639;-68
2023/09/30 03:00:25;;;;;;;2.50;2.30;;;18.40;99.90;;;18.73;nan;101541.88;4911102;29;20646;-68
2023/09/30 03:02:54;;;;;;;2.40;2.20;;;18.30;99.90;;;18.67;nan;101536.31;4925112;29;20689;-69
2023/09/30 03:05:22;;;;;;;4.87;1.90;;;18.20;99.90;;;18.65;nan;101533.84;4913040;29;20650;-70
2023/09/30 03:07:52;;;;;;;3.00;2.20;;;18.20;99.90;;;18.61;nan;101545.66;4911627;29;20693;-68
2023/09/30 03:10:26;;;;;;;2.50;2.23;;;18.20;99.90;;;18.56;nan;101540.78;4913864;29;20646;-68
2023/09/30 03:12:54;;;;;;;4.63;2.80;;;18.20;99.90;;;18.57;nan;101536.31;4912188;29;20640;-70
2023/09/30 03:15:21;;;;;;;4.20;2.77;;;18.10;99.90;;;18.53;nan;101546.34;4910873;29;20654;-68
2023/09/30 03:17:48;;;;;;;3.77;2.70;;;18.10;99.90;;;18.53;nan;101524.34;4925512;29;21160;-67
2023/09/30 03:20:20;;;;;;;6.13;2.47;;;18.10;99.90;;;18.51;nan;101526.31;4908163;29;21431;-68
2023/09/30 03:22:48;;;;;;;3.10;2.37;;;18.10;99.90;;;18.53;nan;101513.78;4909843;29;20654;-68
2023/09/30 03:25:20;;;;;;;8.03;3.10;;;18.10;99.90;;;18.51;nan;101508.66;4914146;29;20642;-67
2023/09/30 03:27:48;;;;;;;5.53;3.30;;;18.10;99.90;;;18.53;nan;101513.78;4909267;29;21247;-68
2023/09/30 03:30:16;;;;;;;9.10;3.47;;;18.10;99.90;;;18.53;nan;101519.91;4923957;29;20647;-69
2023/09/30 03:32:44;;;;;;;3.77;3.30;;;18.10;99.90;;;18.53;nan;101530.50;4923089;29;21211;-69
2023/09/30 03:35:16;;;;;;;4.43;3.10;;;18.10;99.90;;;18.55;nan;101528.53;4904390;29;21203;-68
2023/09/30 03:37:45;;;;;;;4.43;3.30;;;18.10;99.90;;;18.56;nan;101542.59;4911801;29;20673;-69
2023/09/30 03:40:19;;;;;;;3.17;2.87;;;18.10;99.90;;;18.45;nan;101545.38;4906146;29;20651;-69
2023/09/30 03:42:49;;;;;;;4.07;2.60;;;18.10;99.90;;;18.42;nan;101549.09;4924496;29;20665;-69
2023/09/30 03:45:17;;;;;;;3.70;2.60;;;18.00;99.90;;;18.37;nan;101556.59;4908712;29;20646;-69
2023/09/30 03:47:44;;;;;;;2.53;2.33;;;18.00;99.90;;;18.32;nan;101547.41;4903495;29;20699;-69
2023/09/30 03:50:14;;;;;;;4.17;2.83;;;17.90;99.90;;;18.27;nan;101550.47;4912839;29;20645;-69
2023/09/30 03:52:44;;;;;;;9.17;3.37;;;17.90;99.90;;;18.28;nan;101564.50;4907404;29;21002;-70
2023/09/30 03:55:12;;;;;;;5.00;3.77;;;17.90;99.90;;;18.24;nan;101558.69;4913331;29;20633;-68
2023/09/30 03:57:39;;;;;;;6.80;4.00;;;17.80;99.90;;;18.21;nan;101560.75;4909669;29;20665;-68
2023/09/30 04:00:15;;;;;;;6.90;4.10;;;17.80;99.90;;;18.17;nan;101559.34;4905997;29;20677;-70
2023/09/30 04:02:43;;;;;;;6.93;3.70;;;17.80;99.90;;;18.16;nan;101558.53;4904207;29;20646;-69
2023/09/30 04:05:13;;;;;;;9.23;4.10;;;17.80;99.90;;;18.15;nan;101570.06;4908393;29;20642;-68
2023/09/30 04:07:42;;;;;;;10.30;4.33;;;17.70;99.90;;;18.14;nan;101563.13;4912035;29;20674;-69
2023/09/30 04:10:10;;;;;;;6.53;4.00;;;17.70;99.90;;;18.14;nan;101559.63;4920355;29;20991;-70
2023/09/30 04:12:37;;;;;;;7.60;4.70;;;17.70;99.90;;;18.13;nan;101565.88;4908342;29;20645;-67
2023/09/30 04:15:04;;;;;;;5.77;3.93;;;17.70;99.90;;;18.11;nan;101550.19;4905324;29;20626;-68
2023/09/30 04:17:32;;;;;;;6.40;3.40;;;;;;;18.11;nan;101557.25;4906210;29;20670;-68
2023/09/30 04:19:59;;;;;;;7.63;4.97;;;17.70;99.90;;;18.08;nan;101547.78;4913984;29;21230;-68
2023/09/30 04:22:29;;;;;;;4.67;4.17;;;17.70;99.90;;;18.13;nan;101555.31;4915577;29;20645;-68
2023/09/30 04:24:56;;;;;;;5.63;4.33;;;17.70;99.90;;;18.12;nan;101545.72;4913680;29;20644;-70
2023/09/30 04:27:23;;;;;;;4.40;3.40;;;17.70;99.90;;;18.14;nan;101554.34;4917042;29;20685;-68
2023/09/30 04:29:50;;;;;;;5.80;4.37;;;17.70;99.90;;;18.14;nan;101549.06;4913533;29;20644;-71
2023/09/30 04:32:17;;;;;;;6.97;4.33;;;17.70;99.90;;;18.13;nan;101548.22;4910813;29;21222;-68
2023/09/30 04:34:46;;;;;;;5.37;3.87;;;17.70;99.90;;;18.09;nan;101546.84;4924192;29;20638;-70
2023/09/30 04:37:14;;;;;;;4.10;3.40;;;17.70;99.90;;;18.09;nan;101553.91;4911553;29;20681;-68
2023/09/30 04:39:41;;;;;;;5.87;3.47;;;17.70;99.90;;;18.07;nan;101564.63;4913467;29;20657;-69
2023/09/30 04:42:10;;;;;;;2.77;2.40;;;17.60;99.90;;;18.04;nan;101572.81;4930847;29;20648;-69
2023/09/30 04:44:38;;;;;;;3.40;3.00;;;17.60;99.90;;;18.03;nan;101579.06;4912355;29;20993;-67
2023/09/30 04:47:05;;;;;;;8.40;3.73;;;17.60;99.90;;;17.99;nan;101587.41;4913146;29;20674;-68
2023/09/30 04:49:32;;;;;;;5.83;3.50;;;17.60;99.90;;;17.96;nan;101580.56;4916511;29;21382;-70
2023/09/30 04:52:00;;;;;;;3.80;3.27;;;17.60;99.90;;;17.96;nan;101583.22;4915289;29;20638;-67
2023/09/30 04:54:29;;;;;;;6.60;4.40;;;17.60;99.90;;;17.96;nan;101585.00;4913975;29;20625;-69
2023/09/30 04:56:56;;;;;;;8.03;3.67;;;17.50;99.90;;;17.95;nan;101575.44;4915267;29;20701;-69
2023/09/30 04:59:24;;;;;;;5.33;3.70;;;17.50;99.90;;;17.96;nan;101580.56;4913779;29;20672;-69
2023/09/30 05:01:51;;;;;;;6.37;4.00;;;17.60;99.90;;;17.97;nan;101573.50;4914006;29;20660;-68
2023/09/30 05:04:18;;;;;;;3.60;3.00;;;17.60;99.90;;;17.94;nan;101569.31;4915020;29;20642;-69
2023/09/30 05:06:46;;;;;;;5.90;3.83;;;17.50;99.90;;;17.93;nan;101582.66;4913701;29;20728;-67
2023/09/30 05:09:13;;;;;;;9.83;3.60;;;17.50;99.90;;;17.95;nan;101586.00;4916309;29;20649;-67
2023/09/30 05:11:40;;;;;;;6.00;3.97;;;17.50;99.90;;;17.93;nan;101578.19;4913515;29;20649;-67
2023/09/30 05:14:07;;;;;;;8.20;4.70;;;17.50;99.90;;;17.93;nan;101590.59;4914592;29;20645;-68
2023/09/30 05:16:34;;;;;;;4.93;3.93;;;17.50;99.90;;;17.93;nan;101595.88;4909051;29;20673;-68
2023/09/30 05:19:01;;;;;;;7.23;3.40;;;17.50;99.90;;;17.93;nan;101594.03;4908396;29;20673;-66
2023/09/30 05:21:28;;;;;;;4.40;3.33;;;17.50;99.90;;;17.91;nan;101600.44;4912304;29;20722;-67
2023/09/30 05:23:56;;;;;;;6.73;3.20;;;17.50;99.90;;;17.91;nan;101595.97;4928948;29;20633;-69
2023/09/30 05:26:23;;;;;;;6.20;3.90;;;17.50;99.90;;;17.93;nan;101587.94;4912534;29;21239;-69
2023/09/30 05:28:50;;;;;;;5.40;4.07;;;17.50;99.90;;;17.97;nan;101594.63;4906033;29;20635;-67
2023/09/30 05:31:17;;;;;;;5.00;3.80;;;17.60;99.90;;;17.99;nan;101611.16;4926923;29;20646;-68
2023/09/30 05:33:44;;;;;;;6.43;4.07;;;17.60;99.90;;;18.04;nan;101609.78;4914020;29;20633;-69
2023/09/30 05:36:13;;;;;;;4.90;4.10;;;17.60;99.90;;;18.07;nan;101596.31;4912945;29;21308;-69
2023/09/30 05:38:40;;;;;;;9.07;4.17;;;17.60;99.90;;;18.10;nan;101603.16;4915270;29;20673;-68
2023/09/30 05:41:07;;;;;;;5.10;3.33;;;17.70;99.90;;;18.14;nan;101623.03;4912376;29;20649;-69
2023/09/30 05:43:35;;;;;;;5.87;4.37;;;17.70;99.90;;;18.16;nan;101624.56;4905855;29;20642;-69
2023/09/30 05:46:02;;;;;;;6.50;4.23;;;17.70;99.90;;;18.19;nan;101626.09;4912322;29;20669;-68
2023/09/30 05:48:29;;;;;;;13.10;4.00;;;17.80;99.90;;;18.19;nan;101626.94;4913447;29;21274;-69
2023/09/30 05:50:57;;;;;;;7.33;3.70;;;17.80;99.90;;;18.21;nan;101622.34;4915063;29;20665;-68
2023/09/30 05:53:24;;;;;;;6.70;4.20;;;17.80;99.90;;;18.22;nan;101623.19;4912624;29;20914;-70
2023/09/30 05:55:51;;;;;;;6.47;4.57;;;17.80;99.90;;;18.27;nan;101627.06;4914803;29;20724;-70
2023/09/30 05:58:19;;;;;;;5.10;4.20;;;17.80;99.90;;;18.32;nan;101627.50;4896262;29;20642;-69
2023/09/30 06:00:46;;;;;;;5.03;3.67;;;17.90;99.90;;;18.34;nan;101630.84;4927327;29;20635;-69
2023/09/30 06:03:13;;;;;;;10.70;4.20;;;17.90;99.90;;;18.36;nan;101620.97;4912405;29;21007;-67
2023/09/30 06:05:41;;;;;;;5.30;3.57;;;17.90;99.90;;;18.38;nan;101628.75;4911840;29;20720;-68
2023/09/30 06:08:13;;;;;;;6.40;3.70;;;18.00;99.90;;;18.40;nan;101629.47;4911698;29;20704;-71
2023/09/30 06:10:44;;;;;;;4.93;3.90;;;17.90;99.90;;;18.43;nan;101626.56;4912704;29;21021;-68
2023/09/30 06:13:13;;;;;;;6.70;3.97;;;18.00;99.90;;;18.49;nan;101624.25;4926411;29;20996;-68
2023/09/30 06:15:41;;;;;;;7.00;4.60;;;18.00;99.90;;;18.61;nan;101632.06;4910128;29;21412;-68
2023/09/30 06:18:12;;;;;;;5.80;4.27;;;18.10;99.90;;;18.71;nan;101627.59;4910744;29;21258;-68
2023/09/30 06:20:39;;;;;;;6.53;4.63;;;18.20;99.90;;;18.79;nan;101633.03;4914238;29;20638;-68
2023/09/30 06:23:06;;;;;;;11.23;4.20;;;18.30;99.90;;;18.88;nan;101626.91;4912111;29;20634;-68
2023/09/30 06:25:33;;;;;;;4.73;3.77;;;18.40;99.90;;;18.99;nan;101626.75;4912245;29;20650;-71
2023/09/30 06:28:00;;;;;;;5.43;4.00;;;18.50;99.90;;;19.11;nan;101621.19;4913194;29;20690;-68
2023/09/30 06:30:30;;;;;;;6.37;4.60;;;18.70;99.90;;;19.29;nan;101626.59;4914087;29;20649;-69
2023/09/30 06:33:00;;;;;;;9.07;4.00;;;18.80;99.90;;;19.48;nan;101625.75;4903545;29;20661;-69
2023/09/30 06:35:29;;;;;;;9.20;4.30;;;19.00;99.90;;;19.55;nan;101627.66;4924020;29;21007;-68
2023/09/30 06:37:57;;;;;;;4.03;3.30;;;19.10;99.90;;;19.61;nan;101636.84;4912359;29;20645;-66
2023/09/30 06:40:23;;;;;;;4.83;3.93;;;19.20;99.90;;;19.64;nan;101647.97;4913934;29;20642;-68
2023/09/30 06:42:51;;;;;;;5.10;3.83;;;19.20;99.90;;;19.64;nan;101653.28;4911180;29;20657;-70
2023/09/30 06:45:19;;;;;;;5.50;3.97;;;19.20;99.90;;;19.69;nan;101651.03;4907951;29;20650;-68
2023/09/30 06:47:46;;;;;;;6.47;4.20;;;19.30;99.90;;;19.86;nan;101652.09;4911095;29;20755;-68
2023/09/30 06:50:16;;;;;;;8.43;4.37;;;19.40;99.90;;;20.11;nan;101669.94;4923022;29;20678;-68
2023/09/30 06:52:49;;;;;;;5.93;3.93;;;19.70;99.90;;;20.49;nan;101674.22;4908482;29;20634;-68
2023/09/30 06:55:16;;;;;;;6.07;3.37;;;20.00;99.90;;;20.79;nan;101673.88;4912214;29;20654;-65
2023/09/30 06:57:43;;;;;;;5.80;3.83;;;20.30;99.90;;;20.97;nan;101664.13;4911479;29;20717;-68
2023/09/30 07:00:13;;;;;;;9.27;4.27;;;20.50;99.90;;;21.00;nan;101658.50;4900679;29;20662;-68
2023/09/30 07:02:41;;;;;;;5.97;3.73;;;20.60;99.90;;;21.11;nan;101658.28;4906729;29;21234;-68
2023/09/30 07:05:14;;;;;;;4.30;3.70;;;20.70;99.90;;;21.33;nan;101662.28;4912888;29;20638;-68
2023/09/30 07:07:45;;;;;;;6.33;4.17;;;20.90;99.90;;;21.48;nan;101669.53;4893800;29;20692;-66
2023/09/30 07:10:12;;;;;;;8.53;4.23;;;21.10;99.90;;;21.73;nan;101667.03;4913474;29;20640;-67
2023/09/30 07:12:39;;;;;;;5.80;3.50;;;21.30;99.90;;;22.14;nan;101675.09;4910372;29;20646;-68
2023/09/30 07:15:08;;;;;;;4.17;3.27;;;21.70;99.90;;;22.46;nan;101685.00;4928981;29;20673;-70
2023/09/30 07:17:36;;;;;;;9.97;3.60;;;22.00;99.90;;;22.49;nan;101695.31;4905280;29;20669;-67
2023/09/30 07:20:05;;;;;;;7.00;3.77;;;22.10;99.90;;;22.35;nan;101698.59;4910497;29;21219;-67
2023/09/30 07:22:36;;;;;;;4.70;3.40;;;22.10;99.90;;;22.18;nan;101689.72;4909024;29;20656;-67
2023/09/30 07:25:18;;;;;;;5.30;3.93;;;21.90;99.90;;;22.05;nan;101697.28;4910953;29;20645;-68
2023/09/30 07:27:46;;;;;;;4.00;3.17;;;21.70;99.90;;;21.94;nan;101694.06;4913057;29;21156;-68
2023/09/30 07:30:14;;;;;;;6.43;4.03;;;21.70;99.90;;;21.85;nan;101684.41;4909586;29;20638;-68
2023/09/30 07:32:42;;;;;;;7.47;4.27;;;21.60;99.90;;;21.77;nan;101679.84;4904179;29;20639;-67
2023/09/30 07:35:11;;;;;;;6.03;3.97;;;21.50;99.90;;;21.71;nan;101669.00;4927894;29;20665;-69
2023/09/30 07:37:38;;;;;;;3.77;3.40;;;21.40;99.90;;;21.62;nan;101666.31;4912787;29;20675;-68
2023/09/30 07:40:06;;;;;;;7.73;4.00;;;21.30;99.90;;;21.56;nan;101687.34;4913869;29;21195;-67
2023/09/30 07:42:33;;;;;;;8.40;4.60;;;21.20;99.90;;;21.58;nan;101674.75;4909027;29;20650;-67
2023/09/30 07:45:03;;;;;;;8.33;4.63;;;21.20;99.90;;;21.69;nan;101677.13;4912489;29;20638;-67
2023/09/30 07:47:32;;;;;;;8.30;4.73;;;21.30;99.90;;;21.88;nan;101684.91;4901003;29;21076;-67
2023/09/30 07:50:06;;;;;;;5.53;4.33;;;21.40;99.90;;;22.04;nan;101694.81;4909138;29;21231;-70
2023/09/30 07:52:33;;;;;;;4.70;4.20;;;21.60;99.90;;;22.12;nan;101695.69;4915498;29;20638;-69
2023/09/30 07:55:00;;;;;;;7.50;4.47;;;21.70;99.90;;;22.21;nan;101694.69;4914940;29;20642;-68
2023/09/30 07:57:27;;;;;;;5.90;4.30;;;21.80;99.90;;;22.31;nan;101692.78;4915085;29;20688;-68
2023/09/30 07:59:55;;;;;;;5.23;3.17;;;21.90;99.90;;;22.40;nan;101694.44;4915667;29;22006;-68
2023/09/30 08:02:22;;;;;;;6.17;3.90;;;22.00;99.90;;;22.61;nan;101696.72;4913994;29;20658;-66
2023/09/30 08:04:49;;;;;;;4.60;3.40;;;22.20;99.90;;;23.13;nan;101679.47;4913848;29;20661;-64
2023/09/30 08:07:16;;;;;;;3.80;3.50;;;22.70;99.90;;;24.16;nan;101677.81;4899321;29;20673;-68
2023/09/30 08:09:43;;;;;;;3.90;3.47;;;23.60;99.90;;;25.16;nan;101693.75;4914455;29;20648;-65
2023/09/30 08:12:10;;;;;;;5.50;4.07;;;24.70;99.90;;;25.92;nan;101705.06;4915959;29;20640;-68
2023/09/30 08:14:37;;;;;;;4.43;4.03;;;25.60;99.90;;;26.04;nan;101700.09;4911812;29;20646;-67
2023/09/30 08:17:04;;;;;;;4.40;4.00;;;25.70;99.50;;;26.66;nan;101703.16;4912754;29;20662;-67
2023/09/30 08:19:31;;;;;;;6.30;4.10;;;26.30;98.50;;;27.43;nan;101702.28;4913476;29;21522;-67
2023/09/30 08:21:58;;;;;;;5.60;3.43;;;27.00;97.60;;;28.25;nan;101702.41;4914065;29;20633;-67
2023/09/30 08:24:26;;;;;;;11.40;4.60;;;27.70;96.00;;;28.83;nan;101698.28;4915012;29;20641;-68
2023/09/30 08:26:53;;;;;;;3.23;2.93;;;28.30;94.00;;;29.17;nan;101690.09;4914337;29;20681;-67
2023/09/30 08:29:20;;;;;;;4.87;3.90;;;28.80;92.30;;;29.56;nan;101692.72;4917001;29;21120;-66
2023/09/30 08:31:47;;;;;;;6.70;3.47;;;29.30;90.70;;;30.10;nan;101700.50;4913733;29;20652;-67
2023/09/30 08:34:14;;;;;;;4.43;3.00;;;29.80;88.90;;;30.83;nan;101711.78;4914272;29;20638;-67
2023/09/30 08:36:41;;;;;;;4.60;3.70;;;30.60;85.50;;;31.45;nan;101719.88;4907328;29;20662;-67
2023/09/30 08:39:12;;;;;;;6.10;3.90;;;31.20;81.80;;;32.21;nan;101717.63;4915999;29;20633;-67
2023/09/30 08:41:39;;;;;;;4.03;3.70;;;32.00;79.10;;;33.04;nan;101723.19;4914003;29;20652;-68
2023/09/30 08:44:06;;;;;;;3.20;2.87;;;32.80;74.90;;;33.74;nan;101715.97;4913300;29;21057;-71
2023/09/30 08:46:34;;;;;;;5.53;3.40;;;33.50;71.40;;;34.46;nan;101723.47;4907197;29;21027;-71
2023/09/30 08:49:03;;;;;;;6.10;4.23;;;34.30;68.90;;;35.01;nan;101708.28;4915215;29;21221;-71
2023/09/30 08:51:31;;;;;;;3.07;2.87;;;34.90;67.00;;;35.34;nan;101720.22;4912872;29;20716;-72
2023/09/30 08:54:00;;;;;;;5.60;2.87;;;35.20;64.50;;;35.61;nan;101726.63;4910995;29;20743;-71
2023/09/30 08:56:30;;;;;;;4.30;3.90;;;35.50;63.10;;;36.11;nan;101727.34;4929657;29;20681;-72
2023/09/30 08:58:59;;;;;;;6.20;3.33;;;35.90;61.10;;;36.49;nan;101719.13;4912128;29;20634;-72
2023/09/30 09:01:29;;;;;;;3.97;3.43;;;36.40;60.20;;;36.91;nan;101724.75;4912774;29;20651;-71
2023/09/30 09:03:57;;;;;;;2.83;2.63;;;36.80;58.90;;;37.15;nan;101726.06;4907873;29;20665;-72
2023/09/30 09:06:25;;;;;;;3.60;3.30;;;37.10;57.50;;;37.27;nan;101723.13;4911675;29;20658;-73
2023/09/30 09:08:52;;;;;;;3.00;2.63;;;37.30;56.60;;;37.40;nan;101721.91;4929459;29;20678;-72
2023/09/30 09:11:19;;;;;;;4.17;3.37;;;37.40;56.00;;;37.39;nan;101721.09;4911096;29;20622;-72
2023/09/30 09:13:55;;;;;;;5.53;3.67;;;37.50;55.90;;;37.45;nan;101719.22;4912826;29;20649;-73
2023/09/30 09:16:25;;;;;;;3.93;3.23;;;37.50;55.40;;;37.85;nan;101727.66;4912176;29;20666;-71
2023/09/30 09:18:53;;;;;;;3.20;2.90;;;37.80;54.70;;;37.84;nan;101728.75;4907759;29;21016;-72
2023/09/30 09:21:26;;;;;;;3.33;3.03;;;37.90;54.10;;;37.94;nan;101731.50;4914997;29;20634;-72
2023/09/30 09:23:54;;;;;;;3.83;3.03;;;38.00;53.60;;;37.77;nan;101723.50;4912280;29;20688;-71
2023/09/30 09:26:31;;;;;;;3.87;3.53;;;37.90;53.10;;;37.58;nan;101719.59;4915301;29;20665;-72
2023/09/30 09:29:04;;;;;;;3.10;2.80;;;37.70;53.70;;;37.25;nan;101723.41;4913707;29;20685;-70
2023/09/30 09:31:36;;;;;;;2.80;2.60;;;37.20;52.80;;;36.17;nan;101720.91;4927714;29;20642;-70
2023/09/30 09:34:13;;;;;;;3.90;3.50;;;36.10;53.30;;;34.94;nan;101712.22;4910924;29;20622;-70
2023/09/30 09:36:42;;;;;;;4.40;3.80;;;34.90;54.90;;;34.04;nan;101708.53;4908229;29;20673;-68
2023/09/30 09:39:13;;;;;;;3.37;2.90;;;33.80;56.50;;;32.90;nan;101709.84;4910714;29;20654;-67
2023/09/30 09:41:54;;;;;;;3.37;2.83;;;32.70;57.90;;;31.62;nan;101698.53;4913668;29;20644;-69
2023/09/30 09:44:22;;;;;;;5.80;3.00;;;31.50;59.30;;;30.62;nan;101697.59;4908764;29;20704;-69
2023/09/30 09:46:50;;;;;;;5.00;3.03;;;30.40;60.80;;;29.56;nan;101691.94;4910320;29;21281;-70
2023/09/30 09:49:19;;;;;;;10.37;3.63;;;29.30;63.00;;;28.84;nan;101692.69;4912955;29;20679;-69
2023/09/30 09:51:48;;;;;;;4.87;3.20;;;28.60;65.00;;;28.20;nan;101691.44;4903914;29;20643;-69
2023/09/30 09:54:16;;;;;;;2.87;2.43;;;27.90;65.90;;;27.45;nan;101692.19;4905948;29;20637;-72
2023/09/30 09:56:46;;;;;;;2.70;2.50;;;27.20;67.20;;;26.75;nan;101700.19;4907975;29;20681;-68
2023/09/30 09:59:14;;;;;;;4.33;3.17;;;26.50;68.60;;;26.44;nan;101696.91;4914927;29;21391;-69
2023/09/30 10:01:42;;;;;;;4.37;3.23;;;26.10;70.20;;;26.32;nan;101701.09;4912011;29;20649;-68
2023/09/30 10:04:11;;;;;;;7.23;3.97;;;25.90;71.70;;;26.32;nan;101695.75;4910572;29;20654;-72
2023/09/30 10:06:41;;;;;;;2.80;2.60;;;25.80;72.30;;;26.28;nan;101699.00;4925353;29;20674;-71
2023/09/30 10:09:10;;;;;;;6.77;2.43;;;25.80;72.70;;;26.20;nan;101688.38;4894687;29;20700;-68
2023/09/30 10:11:39;;;;;;;4.20;3.50;;;25.70;72.40;;;26.10;nan;101689.50;4924876;29;20680;-69
2023/09/30 10:14:12;;;;;;;3.50;3.10;;;25.70;73.20;;;26.14;nan;101680.09;4913233;29;20654;-69
2023/09/30 10:16:42;;;;;;;5.13;3.00;;;25.70;74.00;;;26.09;nan;101676.28;4910415;29;20676;-71
2023/09/30 10:19:22;;;;;;;6.80;4.30;;;25.70;73.70;;;26.49;nan;101665.03;4906372;29;20650;-73
2023/09/30 10:22:18;;;;;;;3.80;3.00;;;26.10;73.50;;;27.35;nan;101662.22;4913284;29;21295;-72
2023/09/30 10:24:46;;;;;;;5.47;2.80;;;27.00;71.70;;;28.04;nan;101664.94;4902448;29;20662;-69
2023/09/30 10:27:28;;;;;;;4.53;3.70;;;27.60;70.20;;;28.08;nan;101675.09;4908170;29;20662;-70
2023/09/30 10:30:01;;;;;;;5.03;3.80;;;27.60;69.90;;;27.79;nan;101664.56;4903657;29;20697;-69